Ramsau, Austria
Current Conditions -  °F | °C
As of 4:50 AM on Wednesday 22 Oct 2014 (Local Time) from LOWS Reporting Station
Broken Clouds Broken Clouds  
Wind Chill: 39°   Ceiling: 3600
Heat Index: 45°   Visibility: 6mi
Dew Point: 37°   Wind: 12mph
Humidity: 76%   Direction: 290°WNW
Pressure: 29.85"   Gusts: 25mph
Location:  47.42°N, 13.63°E
Report Text: LOWS 220250Z 29010G22KT 260V330 9999 FEW021 SCT025 BKN036 07/03 Q1011 NOSIG
Loading
Personal Weather Stations






























Interactive Weather Map
Tropical Storm Tracking
New forecast layout! Learn more

10-Day Weather Forecast

Advertisements
Track Severe Weather on mobile